sensor_id;sensor_type;location;lat;lon;timestamp;P1;durP1;ratioP1;P2;durP2;ratioP2
59314;SDS011;46521;50.160;20.802;2023-07-31T00:20:52;6.60;;;3.47;;
59314;SDS011;46521;50.160;20.802;2023-07-31T00:30:54;7.43;;;3.63;;
59314;SDS011;46521;50.160;20.802;2023-07-31T00:40:55;8.30;;;4.00;;
59314;SDS011;46521;50.160;20.802;2023-07-31T00:50:56;7.08;;;3.80;;
59314;SDS011;46521;50.160;20.802;2023-07-31T01:00:58;7.00;;;3.70;;
59314;SDS011;46521;50.160;20.802;2023-07-31T01:11:17;7.43;;;3.70;;
59314;SDS011;46521;50.160;20.802;2023-07-31T01:21:30;7.40;;;3.40;;
59314;SDS011;46521;50.160;20.802;2023-07-31T01:31:36;8.00;;;3.83;;
59314;SDS011;46521;50.160;20.802;2023-07-31T01:41:39;8.98;;;3.95;;
59314;SDS011;46521;50.160;20.802;2023-07-31T01:51:41;8.35;;;3.30;;
59314;SDS011;46521;50.160;20.802;2023-07-31T02:01:42;7.30;;;3.45;;
59314;SDS011;46521;50.160;20.802;2023-07-31T02:11:44;6.60;;;3.37;;
59314;SDS011;46521;50.160;20.802;2023-07-31T02:21:45;6.83;;;3.23;;
59314;SDS011;46521;50.160;20.802;2023-07-31T02:31:47;7.87;;;3.43;;
59314;SDS011;46521;50.160;20.802;2023-07-31T02:41:48;6.67;;;3.07;;
59314;SDS011;46521;50.160;20.802;2023-07-31T02:51:50;7.00;;;3.37;;
59314;SDS011;46521;50.160;20.802;2023-07-31T03:01:51;7.30;;;3.58;;
59314;SDS011;46521;50.160;20.802;2023-07-31T03:11:52;8.20;;;3.60;;
59314;SDS011;46521;50.160;20.802;2023-07-31T03:21:54;8.20;;;3.60;;
59314;SDS011;46521;50.160;20.802;2023-07-31T03:31:55;7.30;;;3.50;;
59314;SDS011;46521;50.160;20.802;2023-07-31T03:41:57;7.27;;;3.47;;
59314;SDS011;46521;50.160;20.802;2023-07-31T03:51:58;7.13;;;3.70;;
59314;SDS011;46521;50.160;20.802;2023-07-31T04:02:00;7.30;;;3.88;;
59314;SDS011;46521;50.160;20.802;2023-07-31T04:12:01;7.37;;;3.90;;
59314;SDS011;46521;50.160;20.802;2023-07-31T04:22:03;8.48;;;3.80;;
59314;SDS011;46521;50.160;20.802;2023-07-31T04:32:05;9.00;;;3.50;;
59314;SDS011;46521;50.160;20.802;2023-07-31T04:42:06;7.20;;;3.75;;
59314;SDS011;46521;50.160;20.802;2023-07-31T04:52:08;7.20;;;3.40;;
59314;SDS011;46521;50.160;20.802;2023-07-31T05:02:11;8.05;;;3.70;;
59314;SDS011;46521;50.160;20.802;2023-07-31T05:12:14;7.90;;;4.00;;
59314;SDS011;46521;50.160;20.802;2023-07-31T05:22:15;7.10;;;4.00;;
59314;SDS011;46521;50.160;20.802;2023-07-31T05:32:16;8.18;;;4.08;;
59314;SDS011;46521;50.160;20.802;2023-07-31T05:42:18;8.57;;;4.20;;
59314;SDS011;46521;50.160;20.802;2023-07-31T05:52:20;6.37;;;3.27;;
59314;SDS011;46521;50.160;20.802;2023-07-31T06:02:21;6.90;;;3.80;;
59314;SDS011;46521;50.160;20.802;2023-07-31T06:12:22;7.80;;;3.35;;
59314;SDS011;46521;50.160;20.802;2023-07-31T06:22:25;7.40;;;3.40;;
59314;SDS011;46521;50.160;20.802;2023-07-31T06:32:27;9.05;;;3.50;;
59314;SDS011;46521;50.160;20.802;2023-07-31T06:42:29;7.98;;;3.33;;
59314;SDS011;46521;50.160;20.802;2023-07-31T06:52:30;6.80;;;3.10;;
59314;SDS011;46521;50.160;20.802;2023-07-31T07:02:32;5.97;;;3.10;;
59314;SDS011;46521;50.160;20.802;2023-07-31T07:12:33;6.93;;;3.30;;
59314;SDS011;46521;50.160;20.802;2023-07-31T07:22:35;6.90;;;3.80;;
59314;SDS011;46521;50.160;20.802;2023-07-31T07:32:36;7.10;;;3.80;;
59314;SDS011;46521;50.160;20.802;2023-07-31T07:42:38;8.30;;;3.95;;
59314;SDS011;46521;50.160;20.802;2023-07-31T07:52:39;6.83;;;4.20;;
59314;SDS011;46521;50.160;20.802;2023-07-31T08:02:41;6.93;;;3.77;;
59314;SDS011;46521;50.160;20.802;2023-07-31T08:12:42;8.00;;;4.10;;
59314;SDS011;46521;50.160;20.802;2023-07-31T08:22:44;8.60;;;3.70;;
59314;SDS011;46521;50.160;20.802;2023-07-31T08:32:45;6.80;;;3.45;;
59314;SDS011;46521;50.160;20.802;2023-07-31T08:42:48;6.70;;;3.78;;
59314;SDS011;46521;50.160;20.802;2023-07-31T08:52:51;6.73;;;3.70;;
59314;SDS011;46521;50.160;20.802;2023-07-31T09:03:03;6.67;;;3.50;;
59314;SDS011;46521;50.160;20.802;2023-07-31T09:13:10;6.63;;;4.08;;
59314;SDS011;46521;50.160;20.802;2023-07-31T09:23:12;5.80;;;3.30;;
59314;SDS011;46521;50.160;20.802;2023-07-31T09:33:15;7.10;;;3.15;;
59314;SDS011;46521;50.160;20.802;2023-07-31T09:43:18;4.97;;;2.67;;
59314;SDS011;46521;50.160;20.802;2023-07-31T09:53:24;7.20;;;3.80;;
59314;SDS011;46521;50.160;20.802;2023-07-31T10:03:33;9.85;;;4.58;;
59314;SDS011;46521;50.160;20.802;2023-07-31T10:13:35;10.33;;;4.35;;
59314;SDS011;46521;50.160;20.802;2023-07-31T10:23:37;6.87;;;3.97;;
59314;SDS011;46521;50.160;20.802;2023-07-31T10:33:39;7.83;;;4.10;;
59314;SDS011;46521;50.160;20.802;2023-07-31T10:43:41;7.93;;;3.90;;
59314;SDS011;46521;50.160;20.802;2023-07-31T10:53:42;9.10;;;3.80;;
59314;SDS011;46521;50.160;20.802;2023-07-31T11:03:46;7.67;;;3.50;;
59314;SDS011;46521;50.160;20.802;2023-07-31T11:13:50;7.20;;;3.00;;
59314;SDS011;46521;50.160;20.802;2023-07-31T11:23:55;7.23;;;3.18;;
59314;SDS011;46521;50.160;20.802;2023-07-31T11:34:05;8.90;;;3.57;;
59314;SDS011;46521;50.160;20.802;2023-07-31T11:44:07;7.25;;;3.13;;
59314;SDS011;46521;50.160;20.802;2023-07-31T11:54:08;6.70;;;3.17;;
59314;SDS011;46521;50.160;20.802;2023-07-31T12:04:10;7.45;;;3.30;;
59314;SDS011;46521;50.160;20.802;2023-07-31T12:14:21;7.57;;;3.63;;
59314;SDS011;46521;50.160;20.802;2023-07-31T12:24:25;6.17;;;2.90;;
59314;SDS011;46521;50.160;20.802;2023-07-31T12:34:27;6.53;;;3.40;;
59314;SDS011;46521;50.160;20.802;2023-07-31T12:44:29;7.20;;;3.05;;
59314;SDS011;46521;50.160;20.802;2023-07-31T12:54:30;6.68;;;2.73;;
59314;SDS011;46521;50.160;20.802;2023-07-31T13:04:32;5.30;;;2.90;;
59314;SDS011;46521;50.160;20.802;2023-07-31T13:14:33;7.43;;;2.90;;
59314;SDS011;46521;50.160;20.802;2023-07-31T13:24:35;6.97;;;2.40;;
59314;SDS011;46521;50.160;20.802;2023-07-31T13:34:36;6.80;;;2.50;;
59314;SDS011;46521;50.160;20.802;2023-07-31T13:44:38;7.20;;;2.53;;
59314;SDS011;46521;50.160;20.802;2023-07-31T13:54:40;5.65;;;2.50;;
59314;SDS011;46521;50.160;20.802;2023-07-31T14:04:43;6.50;;;2.40;;
59314;SDS011;46521;50.160;20.802;2023-07-31T14:14:45;6.17;;;2.10;;
59314;SDS011;46521;50.160;20.802;2023-07-31T14:24:46;5.67;;;2.13;;
59314;SDS011;46521;50.160;20.802;2023-07-31T14:34:48;5.53;;;2.20;;
59314;SDS011;46521;50.160;20.802;2023-07-31T14:44:50;6.28;;;2.50;;
59314;SDS011;46521;50.160;20.802;2023-07-31T14:54:51;6.13;;;2.53;;
59314;SDS011;46521;50.160;20.802;2023-07-31T15:04:53;4.90;;;1.80;;
59314;SDS011;46521;50.160;20.802;2023-07-31T15:14:54;6.10;;;2.35;;
59314;SDS011;46521;50.160;20.802;2023-07-31T15:24:56;5.88;;;1.93;;
59314;SDS011;46521;50.160;20.802;2023-07-31T15:34:57;5.30;;;2.10;;
59314;SDS011;46521;50.160;20.802;2023-07-31T15:44:59;5.98;;;2.20;;
59314;SDS011;46521;50.160;20.802;2023-07-31T15:55:00;6.13;;;2.30;;
59314;SDS011;46521;50.160;20.802;2023-07-31T16:05:02;5.53;;;2.13;;
59314;SDS011;46521;50.160;20.802;2023-07-31T16:15:04;5.03;;;2.30;;
59314;SDS011;46521;50.160;20.802;2023-07-31T16:25:06;6.20;;;2.10;;
59314;SDS011;46521;50.160;20.802;2023-07-31T16:35:08;9.13;;;2.63;;
59314;SDS011;46521;50.160;20.802;2023-07-31T16:45:09;7.25;;;2.73;;
59314;SDS011;46521;50.160;20.802;2023-07-31T16:55:11;6.80;;;2.70;;
59314;SDS011;46521;50.160;20.802;2023-07-31T17:05:12;6.87;;;2.60;;
59314;SDS011;46521;50.160;20.802;2023-07-31T17:15:14;5.75;;;2.60;;
59314;SDS011;46521;50.160;20.802;2023-07-31T17:25:18;9.55;;;3.50;;
59314;SDS011;46521;50.160;20.802;2023-07-31T17:35:20;6.10;;;2.95;;
59314;SDS011;46521;50.160;20.802;2023-07-31T17:45:21;8.75;;;3.20;;
59314;SDS011;46521;50.160;20.802;2023-07-31T17:55:23;7.73;;;3.20;;
59314;SDS011;46521;50.160;20.802;2023-07-31T18:05:24;7.23;;;2.83;;
59314;SDS011;46521;50.160;20.802;2023-07-31T18:15:25;6.55;;;3.78;;
59314;SDS011;46521;50.160;20.802;2023-07-31T18:25:27;6.85;;;3.25;;
59314;SDS011;46521;50.160;20.802;2023-07-31T18:35:28;8.38;;;4.60;;
59314;SDS011;46521;50.160;20.802;2023-07-31T18:45:31;7.90;;;3.63;;
59314;SDS011;46521;50.160;20.802;2023-07-31T18:55:33;8.20;;;4.40;;
59314;SDS011;46521;50.160;20.802;2023-07-31T19:05:35;10.88;;;4.40;;
59314;SDS011;46521;50.160;20.802;2023-07-31T19:15:36;8.80;;;4.60;;
59314;SDS011;46521;50.160;20.802;2023-07-31T19:25:37;8.23;;;4.13;;
59314;SDS011;46521;50.160;20.802;2023-07-31T19:35:39;9.33;;;4.85;;
59314;SDS011;46521;50.160;20.802;2023-07-31T19:45:41;10.25;;;5.05;;
59314;SDS011;46521;50.160;20.802;2023-07-31T19:55:43;7.70;;;4.00;;
59314;SDS011;46521;50.160;20.802;2023-07-31T20:05:44;10.60;;;4.83;;
59314;SDS011;46521;50.160;20.802;2023-07-31T20:15:49;8.70;;;4.70;;
59314;SDS011;46521;50.160;20.802;2023-07-31T20:25:50;11.30;;;5.68;;
59314;SDS011;46521;50.160;20.802;2023-07-31T20:35:52;11.05;;;5.68;;
59314;SDS011;46521;50.160;20.802;2023-07-31T20:45:54;7.87;;;4.83;;
59314;SDS011;46521;50.160;20.802;2023-07-31T20:55:55;9.95;;;4.83;;
59314;SDS011;46521;50.160;20.802;2023-07-31T21:05:57;7.45;;;4.75;;
59314;SDS011;46521;50.160;20.802;2023-07-31T21:26:02;9.87;;;5.07;;
59314;SDS011;46521;50.160;20.802;2023-07-31T21:36:03;9.10;;;4.98;;
59314;SDS011;46521;50.160;20.802;2023-07-31T21:46:05;8.77;;;4.43;;
59314;SDS011;46521;50.160;20.802;2023-07-31T21:56:07;8.87;;;4.90;;
59314;SDS011;46521;50.160;20.802;2023-07-31T22:06:08;8.00;;;4.30;;
59314;SDS011;46521;50.160;20.802;2023-07-31T22:16:10;7.43;;;4.00;;
59314;SDS011;46521;50.160;20.802;2023-07-31T22:26:11;11.90;;;5.50;;
59314;SDS011;46521;50.160;20.802;2023-07-31T22:36:13;10.20;;;6.30;;
59314;SDS011;46521;50.160;20.802;2023-07-31T22:46:14;9.60;;;6.13;;
59314;SDS011;46521;50.160;20.802;2023-07-31T22:56:16;11.20;;;7.15;;
59314;SDS011;46521;50.160;20.802;2023-07-31T23:06:17;11.98;;;6.43;;
59314;SDS011;46521;50.160;20.802;2023-07-31T23:16:19;10.53;;;5.80;;
59314;SDS011;46521;50.160;20.802;2023-07-31T23:26:21;11.58;;;6.30;;
59314;SDS011;46521;50.160;20.802;2023-07-31T23:36:22;11.20;;;5.80;;
59314;SDS011;46521;50.160;20.802;2023-07-31T23:46:24;10.73;;;5.55;;
